createdAt,value
2022-11-06T00:00:38.712Z,4.10
2022-11-06T00:03:07.728Z,3.53
2022-11-06T00:05:54.154Z,4.80
2022-11-06T00:08:34.352Z,4.27
2022-11-06T00:11:03.181Z,3.77
2022-11-06T00:13:32.751Z,3.37
2022-11-06T00:16:04.418Z,3.40
2022-11-06T00:18:32.993Z,3.00
2022-11-06T00:21:01.359Z,4.23
2022-11-06T00:23:29.530Z,3.40
2022-11-06T00:25:57.805Z,2.90
2022-11-06T00:28:26.008Z,3.33
2022-11-06T00:31:03.904Z,3.83
2022-11-06T00:33:32.593Z,3.00
2022-11-06T00:36:03.629Z,2.80
2022-11-06T00:38:32.206Z,3.50
2022-11-06T00:41:03.706Z,2.87
2022-11-06T00:43:33.054Z,2.80
2022-11-06T00:46:04.625Z,3.63
2022-11-06T00:48:32.904Z,2.97
2022-11-06T00:51:03.906Z,2.53
2022-11-06T00:53:32.108Z,2.77
2022-11-06T00:56:06.599Z,3.00
2022-11-06T00:58:34.876Z,2.60
2022-11-06T01:01:13.345Z,2.97
2022-11-06T01:03:43.216Z,2.57
2022-11-06T01:06:13.335Z,3.10
2022-11-06T01:08:41.910Z,3.40
2022-11-06T01:11:12.596Z,3.90
2022-11-06T01:13:41.583Z,3.00
2022-11-06T01:16:13.216Z,3.67
2022-11-06T01:18:42.627Z,3.47
2022-11-06T01:21:13.581Z,3.40
2022-11-06T01:23:42.744Z,3.40
2022-11-06T01:26:12.220Z,3.60
2022-11-06T01:28:40.982Z,3.73
2022-11-06T01:31:13.042Z,3.60
2022-11-06T01:33:41.476Z,3.20
2022-11-06T01:36:11.066Z,5.07
2022-11-06T01:38:41.744Z,3.03
2022-11-06T01:41:10.224Z,2.70
2022-11-06T01:43:47.580Z,2.77
2022-11-06T01:46:18.308Z,3.20
2022-11-06T01:48:50.493Z,3.13
2022-11-06T01:51:19.307Z,2.80
2022-11-06T01:53:47.913Z,2.70
2022-11-06T01:56:16.896Z,2.70
2022-11-06T01:58:46.807Z,2.80
2022-11-06T02:01:15.370Z,2.47
2022-11-06T02:04:04.893Z,2.63
2022-11-06T02:06:33.908Z,3.17
2022-11-06T02:09:03.189Z,2.80
2022-11-06T02:11:31.498Z,2.77
2022-11-06T02:14:09.850Z,2.30
2022-11-06T02:16:45.162Z,2.50
2022-11-06T02:19:31.742Z,2.10
2022-11-06T02:22:12.213Z,2.47
2022-11-06T02:25:09.676Z,2.50
2022-11-06T02:27:39.653Z,2.73
2022-11-06T02:30:10.030Z,2.70
2022-11-06T02:32:45.407Z,2.90
2022-11-06T02:35:22.137Z,2.70
2022-11-06T02:37:53.950Z,2.57
2022-11-06T02:40:25.046Z,2.80
2022-11-06T02:42:56.852Z,2.50
2022-11-06T02:45:28.228Z,2.60
2022-11-06T02:47:57.154Z,2.50
2022-11-06T02:50:31.190Z,2.60
2022-11-06T02:53:03.081Z,3.03
2022-11-06T02:55:37.096Z,2.80
2022-11-06T02:58:12.342Z,3.30
2022-11-06T03:00:45.585Z,3.17
2022-11-06T03:03:21.357Z,2.77
2022-11-06T03:05:55.826Z,2.73
2022-11-06T03:08:29.921Z,3.10
2022-11-06T03:11:06.153Z,2.70
2022-11-06T03:13:45.591Z,2.80
2022-11-06T03:16:23.959Z,2.50
2022-11-06T03:18:59.819Z,2.80
2022-11-06T03:21:33.209Z,2.93
2022-11-06T03:24:11.366Z,2.80
2022-11-06T03:26:44.916Z,3.07
2022-11-06T03:29:17.959Z,2.40
2022-11-06T03:31:51.571Z,2.73
2022-11-06T03:34:28.403Z,3.27
2022-11-06T03:37:03.629Z,3.37
2022-11-06T03:39:35.957Z,3.17
2022-11-06T03:42:07.723Z,2.60
2022-11-06T03:44:42.336Z,2.57
2022-11-06T03:47:14.438Z,2.80
2022-11-06T03:49:51.814Z,2.70
2022-11-06T03:52:25.257Z,2.63
2022-11-06T03:54:58.373Z,2.83
2022-11-06T03:57:31.345Z,6.90
2022-11-06T04:00:05.727Z,10.37
2022-11-06T04:02:43.612Z,2.50
2022-11-06T04:05:17.423Z,2.70
2022-11-06T04:08:09.729Z,2.47
2022-11-06T04:10:58.372Z,2.40
2022-11-06T04:13:50.578Z,2.50
2022-11-06T04:16:20.284Z,2.20
2022-11-06T04:18:48.541Z,2.37
2022-11-06T04:21:26.245Z,2.30
2022-11-06T04:24:27.821Z,2.20
2022-11-06T04:27:36.401Z,1.97
2022-11-06T04:30:08.340Z,2.03
2022-11-06T04:33:03.442Z,1.90
2022-11-06T04:35:38.456Z,2.50
2022-11-06T04:38:14.159Z,1.63
2022-11-06T04:40:53.131Z,2.10
2022-11-06T04:43:26.838Z,1.90
2022-11-06T04:45:58.624Z,2.27
2022-11-06T04:48:29.248Z,2.10
2022-11-06T04:51:01.733Z,2.03
2022-11-06T04:53:32.079Z,2.40
2022-11-06T04:56:03.192Z,2.03
2022-11-06T04:58:31.414Z,1.80
2022-11-06T05:00:59.677Z,2.13
2022-11-06T05:03:29.300Z,2.40
2022-11-06T05:05:57.845Z,2.60
2022-11-06T05:08:26.226Z,2.00
2022-11-06T05:10:54.825Z,2.30
2022-11-06T05:13:23.125Z,1.87
2022-11-06T05:15:56.791Z,2.10
2022-11-06T05:18:25.117Z,2.47
2022-11-06T05:21:14.861Z,2.50
2022-11-06T05:23:43.223Z,2.10
2022-11-06T05:26:11.982Z,2.40
2022-11-06T05:28:40.653Z,2.07
2022-11-06T05:31:08.810Z,2.30
2022-11-06T05:33:37.077Z,2.20
2022-11-06T05:36:08.146Z,2.90
2022-11-06T05:38:36.536Z,2.17
2022-11-06T05:41:04.785Z,2.20
2022-11-06T05:43:33.024Z,2.20
2022-11-06T05:46:01.532Z,2.60
2022-11-06T05:48:30.029Z,2.50
2022-11-06T05:51:02.002Z,2.70
2022-11-06T05:53:32.841Z,2.50
2022-11-06T05:56:01.093Z,2.37
2022-11-06T05:58:29.562Z,2.13
2022-11-06T06:00:58.305Z,2.93
2022-11-06T06:03:27.246Z,2.03
2022-11-06T06:05:55.607Z,2.97
2022-11-06T06:08:24.018Z,2.20
2022-11-06T06:10:53.820Z,2.20
2022-11-06T06:13:22.169Z,2.73
2022-11-06T06:15:50.415Z,3.67
2022-11-06T06:18:18.645Z,2.00
2022-11-06T06:20:46.851Z,2.70
2022-11-06T06:23:15.127Z,2.40
2022-11-06T06:25:43.327Z,1.93
2022-11-06T06:28:13.117Z,2.77
2022-11-06T06:30:41.568Z,2.00
2022-11-06T06:33:09.727Z,2.20
2022-11-06T06:35:37.936Z,2.17
2022-11-06T06:38:06.160Z,2.57
2022-11-06T06:40:34.476Z,2.00
2022-11-06T06:43:02.642Z,1.80
2022-11-06T06:45:32.325Z,2.20
2022-11-06T06:48:03.738Z,2.20
2022-11-06T06:50:32.782Z,1.80
2022-11-06T06:53:01.001Z,1.80
2022-11-06T06:55:29.439Z,2.33
2022-11-06T06:58:01.455Z,2.00
2022-11-06T07:00:30.532Z,1.77
2022-11-06T07:03:00.083Z,1.70
2022-11-06T07:05:28.313Z,1.80
2022-11-06T07:07:56.577Z,1.90
2022-11-06T07:10:24.997Z,2.23
2022-11-06T07:12:53.175Z,2.03
2022-11-06T07:15:21.328Z,2.07
2022-11-06T07:17:49.573Z,1.60
2022-11-06T07:20:19.717Z,1.97
2022-11-06T07:22:48.124Z,1.70
2022-11-06T07:25:16.409Z,1.70
2022-11-06T07:27:44.578Z,2.23
2022-11-06T07:30:13.632Z,1.97
2022-11-06T07:32:41.934Z,1.83
2022-11-06T07:35:10.960Z,2.00
2022-11-06T07:37:40.669Z,1.60
2022-11-06T07:40:11.359Z,1.50
2022-11-06T07:42:43.252Z,1.60
2022-11-06T07:45:16.174Z,1.87
2022-11-06T07:47:44.428Z,2.03
2022-11-06T07:50:12.641Z,1.57
2022-11-06T07:52:42.338Z,1.50
2022-11-06T07:55:10.988Z,1.40
2022-11-06T07:57:41.611Z,1.70
2022-11-06T08:00:11.146Z,1.70
2022-11-06T08:02:42.094Z,2.17
2022-11-06T08:05:10.681Z,2.03
2022-11-06T08:07:38.873Z,1.63
2022-11-06T08:10:09.117Z,1.83
2022-11-06T08:12:37.363Z,1.47
2022-11-06T08:15:06.482Z,1.90
2022-11-06T08:17:34.785Z,1.50
2022-11-06T08:20:03.312Z,1.60
2022-11-06T08:22:31.486Z,1.43
2022-11-06T08:25:02.322Z,1.80
2022-11-06T08:27:33.138Z,2.63
2022-11-06T08:30:01.398Z,1.60
2022-11-06T08:32:29.897Z,1.80
2022-11-06T08:34:58.179Z,1.63
2022-11-06T08:37:26.392Z,1.50
2022-11-06T08:39:54.713Z,1.40
2022-11-06T08:42:23.010Z,1.50
2022-11-06T08:44:52.551Z,1.70
2022-11-06T08:47:20.763Z,1.80
2022-11-06T08:49:49.004Z,1.80
2022-11-06T08:52:17.229Z,1.47
2022-11-06T08:54:45.456Z,1.63
2022-11-06T08:57:13.656Z,1.57
2022-11-06T08:59:41.968Z,1.97
2022-11-06T09:02:14.768Z,1.43
2022-11-06T09:04:43.273Z,1.70
2022-11-06T09:07:11.531Z,2.00
2022-11-06T09:09:39.800Z,1.50
2022-11-06T09:12:08.815Z,1.70
2022-11-06T09:14:37.057Z,1.63
2022-11-06T09:17:05.777Z,1.67
2022-11-06T09:19:35.425Z,1.60
2022-11-06T09:22:03.704Z,1.87
2022-11-06T09:24:57.241Z,1.60
2022-11-06T09:27:20.145Z,1.30
2022-11-06T09:29:49.329Z,1.40
2022-11-06T09:32:17.811Z,1.40
2022-11-06T09:34:47.414Z,1.77
2022-11-06T09:37:15.609Z,1.57
2022-11-06T09:39:43.872Z,1.40
2022-11-06T09:42:21.546Z,1.50
2022-11-06T09:45:00.462Z,1.30
2022-11-06T09:47:35.437Z,1.17
2022-11-06T09:50:13.326Z,1.20
2022-11-06T09:52:45.635Z,1.50
2022-11-06T09:55:19.100Z,1.50
2022-11-06T09:57:52.415Z,1.40
2022-11-06T10:00:20.933Z,1.30
2022-11-06T10:02:52.547Z,1.70
2022-11-06T10:05:27.665Z,1.60
2022-11-06T10:07:58.722Z,1.13
2022-11-06T10:10:32.522Z,1.60
2022-11-06T10:13:17.696Z,1.40
2022-11-06T10:15:53.161Z,1.40
2022-11-06T10:18:31.244Z,1.33
2022-11-06T10:21:10.099Z,1.37
2022-11-06T10:23:45.785Z,1.50
2022-11-06T10:26:18.326Z,1.87
2022-11-06T10:29:01.963Z,1.40
2022-11-06T10:31:38.767Z,1.40
2022-11-06T10:34:12.111Z,1.23
2022-11-06T10:36:49.973Z,1.50
2022-11-06T10:39:24.145Z,3.00
2022-11-06T10:41:59.267Z,2.57
2022-11-06T10:44:33.878Z,3.97
2022-11-06T10:47:07.249Z,4.57
2022-11-06T10:49:41.899Z,3.77
2022-11-06T10:52:39.918Z,3.47
2022-11-06T10:55:49.550Z,1.33
2022-11-06T10:58:20.889Z,2.20
2022-11-06T11:00:50.362Z,4.23
2022-11-06T11:03:25.432Z,7.23
2022-11-06T11:05:55.268Z,7.40
2022-11-06T11:08:40.363Z,4.13
2022-11-06T11:11:20.302Z,4.27
2022-11-06T11:13:51.031Z,4.50
2022-11-06T11:16:21.722Z,3.60
2022-11-06T11:18:51.671Z,2.80
2022-11-06T11:21:27.804Z,3.57
2022-11-06T11:24:11.787Z,2.10
2022-11-06T11:26:44.306Z,2.33
2022-11-06T11:29:17.854Z,1.67
2022-11-06T11:31:51.088Z,1.97
2022-11-06T11:34:23.059Z,6.63
2022-11-06T11:37:03.040Z,4.10
2022-11-06T11:39:35.027Z,2.97
2022-11-06T11:42:33.832Z,6.23
2022-11-06T11:45:14.595Z,5.23
2022-11-06T11:47:46.776Z,4.53
2022-11-06T11:50:30.554Z,2.90
2022-11-06T11:53:08.714Z,2.80
2022-11-06T11:55:43.113Z,1.93
2022-11-06T11:58:23.213Z,3.00
2022-11-06T12:00:55.827Z,2.47
2022-11-06T12:03:26.861Z,2.13
2022-11-06T12:06:05.179Z,1.50
2022-11-06T12:08:33.618Z,1.70
2022-11-06T12:11:08.183Z,2.70
2022-11-06T12:13:36.411Z,1.70
2022-11-06T12:16:09.738Z,2.00
2022-11-06T12:18:42.096Z,2.90
2022-11-06T12:21:15.612Z,10.67
2022-11-06T12:23:47.241Z,2.40
2022-11-06T12:26:27.236Z,2.20
2022-11-06T12:29:04.635Z,2.10
2022-11-06T12:31:40.439Z,2.30
2022-11-06T12:34:17.509Z,2.43
2022-11-06T12:36:53.713Z,3.37
2022-11-06T12:39:28.725Z,2.70
2022-11-06T12:41:58.581Z,2.70
2022-11-06T12:44:27.106Z,3.13
2022-11-06T12:47:00.880Z,2.50
2022-11-06T12:49:58.026Z,2.50
2022-11-06T12:52:42.789Z,2.10
2022-11-06T12:55:20.230Z,2.67
2022-11-06T12:58:05.877Z,2.13
2022-11-06T13:00:40.462Z,2.50
2022-11-06T13:03:23.464Z,2.33
2022-11-06T13:06:01.634Z,2.97
2022-11-06T13:08:39.515Z,2.83
2022-11-06T13:11:18.011Z,3.13
2022-11-06T13:13:59.002Z,3.30
2022-11-06T13:16:35.000Z,3.60
2022-11-06T13:19:11.964Z,4.80
2022-11-06T13:22:01.335Z,3.23
2022-11-06T13:24:36.297Z,2.90
2022-11-06T13:27:11.857Z,2.80
2022-11-06T13:29:43.024Z,2.97
2022-11-06T13:32:15.261Z,3.53
2022-11-06T13:34:46.199Z,2.73
2022-11-06T13:37:17.715Z,3.30
2022-11-06T13:39:49.423Z,3.60
2022-11-06T13:42:24.783Z,3.67
2022-11-06T13:44:55.393Z,2.80
2022-11-06T13:47:30.467Z,3.53
2022-11-06T13:50:05.700Z,3.00
2022-11-06T13:52:40.603Z,3.20
2022-11-06T13:55:18.223Z,2.87
2022-11-06T13:58:21.834Z,2.83
2022-11-06T14:01:04.142Z,3.50
2022-11-06T14:04:01.996Z,2.73
2022-11-06T14:06:32.732Z,3.03
2022-11-06T14:09:03.079Z,2.33
2022-11-06T14:11:33.646Z,2.67
2022-11-06T14:14:04.422Z,4.90
2022-11-06T14:16:35.522Z,2.50
2022-11-06T14:19:08.206Z,2.73
2022-11-06T14:21:48.793Z,2.03
2022-11-06T14:24:32.272Z,2.43
2022-11-06T14:27:03.177Z,2.30
2022-11-06T14:29:57.879Z,1.90
2022-11-06T14:32:47.462Z,2.30
2022-11-06T14:35:48.672Z,1.90
2022-11-06T14:38:32.214Z,1.90
2022-11-06T14:41:01.418Z,3.03
2022-11-06T14:43:32.593Z,1.90
2022-11-06T14:46:04.514Z,2.53
2022-11-06T14:48:38.368Z,2.10
2022-11-06T14:51:09.417Z,3.33
2022-11-06T14:53:45.994Z,2.23
2022-11-06T14:56:22.970Z,1.70
2022-11-06T14:58:55.046Z,2.20
2022-11-06T15:01:30.328Z,2.00
2022-11-06T15:04:04.095Z,1.90
2022-11-06T15:06:40.194Z,2.27
2022-11-06T15:09:13.987Z,2.23
2022-11-06T15:11:57.325Z,2.37
2022-11-06T15:15:03.704Z,2.30
2022-11-06T15:17:36.638Z,2.40
2022-11-06T15:20:20.681Z,2.20
2022-11-06T15:22:59.543Z,2.97
2022-11-06T15:25:29.352Z,3.70
2022-11-06T15:28:05.066Z,3.43
2022-11-06T15:30:41.789Z,3.23
2022-11-06T15:33:15.602Z,2.97
2022-11-06T15:35:49.665Z,2.87
2022-11-06T15:38:22.585Z,2.80
2022-11-06T15:40:54.283Z,3.30
2022-11-06T15:43:32.014Z,3.20
2022-11-06T15:46:07.316Z,3.83
2022-11-06T15:48:36.172Z,2.70
2022-11-06T15:51:06.142Z,2.60
2022-11-06T15:53:40.630Z,3.17
2022-11-06T15:56:10.389Z,3.97
2022-11-06T15:58:39.435Z,3.57
2022-11-06T16:01:08.989Z,3.57
2022-11-06T16:03:46.586Z,3.30
2022-11-06T16:06:16.509Z,3.13
2022-11-06T16:08:45.285Z,3.47
2022-11-06T16:11:16.700Z,3.57
2022-11-06T16:13:46.930Z,4.37
2022-11-06T16:16:35.671Z,3.17
2022-11-06T16:19:06.422Z,3.27
2022-11-06T16:21:37.640Z,3.70
2022-11-06T16:24:12.430Z,4.17
2022-11-06T16:26:46.997Z,3.80
2022-11-06T16:29:21.331Z,4.03
2022-11-06T16:31:50.870Z,4.20
2022-11-06T16:34:33.739Z,3.73
2022-11-06T16:37:05.405Z,3.80
2022-11-06T16:39:49.241Z,3.60
2022-11-06T16:42:27.753Z,4.10
2022-11-06T16:45:18.739Z,3.63
2022-11-06T16:48:25.008Z,3.77
2022-11-06T16:50:54.975Z,3.33
2022-11-06T16:53:27.256Z,3.13
2022-11-06T16:55:57.457Z,3.53
2022-11-06T16:58:26.595Z,3.53
2022-11-06T17:01:03.072Z,3.60
2022-11-06T17:03:39.761Z,3.47
2022-11-06T17:06:19.384Z,3.20
2022-11-06T17:08:59.013Z,3.20
2022-11-06T17:11:27.319Z,3.17
2022-11-06T17:13:55.539Z,3.33
2022-11-06T17:16:25.739Z,3.27
2022-11-06T17:18:54.443Z,3.57
2022-11-06T17:21:24.441Z,3.10
2022-11-06T17:23:57.632Z,3.30
2022-11-06T17:26:33.199Z,3.87
2022-11-06T17:29:01.611Z,4.43
2022-11-06T17:31:30.701Z,3.63
2022-11-06T17:33:59.135Z,4.50
2022-11-06T17:36:29.707Z,3.93
2022-11-06T17:38:59.925Z,3.93
2022-11-06T17:41:31.132Z,4.53
2022-11-06T17:44:00.673Z,4.77
2022-11-06T17:46:32.529Z,5.07
2022-11-06T17:49:02.335Z,3.70
2022-11-06T17:51:48.234Z,5.43
2022-11-06T17:54:18.938Z,5.50
2022-11-06T17:56:47.318Z,4.60
2022-11-06T17:59:15.921Z,4.50
2022-11-06T18:01:44.212Z,6.17
2022-11-06T18:04:12.568Z,5.53
2022-11-06T18:06:40.770Z,4.17
2022-11-06T18:09:09.213Z,4.53
2022-11-06T18:11:38.881Z,3.93
2022-11-06T18:14:07.050Z,5.90
2022-11-06T18:16:42.275Z,6.80
2022-11-06T18:19:13.298Z,4.63
2022-11-06T18:21:41.600Z,4.80
2022-11-06T18:24:10.046Z,4.80
2022-11-06T18:26:40.111Z,5.87
2022-11-06T18:29:09.475Z,4.93
2022-11-06T18:31:37.765Z,5.87
2022-11-06T18:34:06.895Z,5.73
2022-11-06T18:36:36.778Z,5.60
2022-11-06T18:39:05.311Z,7.07
2022-11-06T18:41:34.510Z,7.97
2022-11-06T18:44:04.252Z,8.03
2022-11-06T18:46:32.506Z,8.50
2022-11-06T18:49:00.978Z,7.00
2022-11-06T18:51:36.176Z,7.87
2022-11-06T18:54:07.920Z,6.87
2022-11-06T18:56:37.380Z,7.10
2022-11-06T18:59:08.653Z,8.87
2022-11-06T19:01:37.128Z,11.13
2022-11-06T19:04:06.760Z,10.67
2022-11-06T19:06:34.947Z,6.37
2022-11-06T19:09:03.201Z,11.13
2022-11-06T19:11:31.442Z,7.27
2022-11-06T19:13:59.772Z,9.33
2022-11-06T19:16:29.389Z,10.83
2022-11-06T19:21:32.914Z,7.33
2022-11-06T19:24:05.978Z,7.70
2022-11-06T19:26:36.249Z,8.90
2022-11-06T19:29:07.350Z,9.00
2022-11-06T19:31:38.202Z,7.27
2022-11-06T19:34:11.846Z,7.77
2022-11-06T19:36:42.739Z,9.87
2022-11-06T19:39:11.581Z,8.67
2022-11-06T19:41:40.044Z,6.77
2022-11-06T19:44:09.701Z,7.30
2022-11-06T19:46:39.462Z,7.67
2022-11-06T19:49:09.046Z,6.43
2022-11-06T19:51:38.834Z,7.30
2022-11-06T19:54:07.757Z,8.63
2022-11-06T19:56:36.056Z,7.27
2022-11-06T19:59:04.384Z,6.53
2022-11-06T20:01:34.494Z,6.90
2022-11-06T20:04:04.383Z,11.50
2022-11-06T20:06:33.395Z,8.97
2022-11-06T20:09:01.884Z,7.97
2022-11-06T20:11:30.109Z,7.60
2022-11-06T20:13:58.391Z,7.43
2022-11-06T20:16:27.507Z,7.57
2022-11-06T20:18:57.838Z,6.37
2022-11-06T20:21:29.295Z,7.40
2022-11-06T20:23:58.290Z,6.67
2022-11-06T20:26:27.081Z,6.70
2022-11-06T20:28:55.583Z,7.23
2022-11-06T20:31:24.199Z,7.17
2022-11-06T20:33:53.619Z,6.27
2022-11-06T20:36:24.514Z,7.20
2022-11-06T20:38:58.574Z,10.60
2022-11-06T20:41:28.434Z,8.80
2022-11-06T20:43:57.445Z,6.50
2022-11-06T20:46:26.360Z,5.90
2022-11-06T20:48:54.835Z,7.23
2022-11-06T20:51:24.480Z,8.10
2022-11-06T20:53:54.635Z,5.93
2022-11-06T20:56:25.631Z,6.53
2022-11-06T20:58:55.153Z,6.43
2022-11-06T21:01:25.332Z,6.73
2022-11-06T21:03:54.801Z,6.03
2022-11-06T21:06:24.848Z,6.30
2022-11-06T21:08:55.691Z,6.97
2022-11-06T21:11:25.590Z,6.23
2022-11-06T21:13:55.285Z,5.43
2022-11-06T21:16:25.987Z,5.83
2022-11-06T21:18:54.680Z,6.37
2022-11-06T21:21:24.664Z,6.93
2022-11-06T21:23:55.693Z,5.77
2022-11-06T21:26:26.175Z,5.90
2022-11-06T21:28:55.822Z,9.23
2022-11-06T21:31:26.256Z,7.27
2022-11-06T21:33:58.742Z,6.87
2022-11-06T21:36:29.381Z,6.77
2022-11-06T21:39:01.640Z,6.53
2022-11-06T21:41:34.040Z,6.43
2022-11-06T21:44:02.572Z,7.17
2022-11-06T21:46:30.876Z,7.33
2022-11-06T21:48:59.439Z,5.87
2022-11-06T21:51:29.867Z,8.17
2022-11-06T21:54:17.260Z,8.50
2022-11-06T21:56:47.735Z,10.63
2022-11-06T21:59:17.101Z,7.10
2022-11-06T22:01:45.607Z,10.43
2022-11-06T22:04:14.167Z,7.47
2022-11-06T22:06:43.985Z,7.30
2022-11-06T22:09:16.599Z,6.17
2022-11-06T22:11:46.794Z,7.67
2022-11-06T22:14:17.296Z,7.67
2022-11-06T22:16:47.802Z,6.63
2022-11-06T22:19:17.682Z,6.60
2022-11-06T22:21:46.233Z,6.93
2022-11-06T22:24:16.613Z,5.93
2022-11-06T22:26:44.835Z,6.40
2022-11-06T22:29:14.639Z,5.00
2022-11-06T22:31:42.960Z,6.80
2022-11-06T22:34:11.672Z,5.20
2022-11-06T22:36:39.981Z,5.40
2022-11-06T22:39:10.303Z,5.03
2022-11-06T22:41:40.130Z,5.00
2022-11-06T22:44:08.658Z,5.00
2022-11-06T22:46:37.137Z,6.87
2022-11-06T22:49:06.009Z,7.63
2022-11-06T22:51:34.981Z,6.40
2022-11-06T22:54:04.085Z,6.80
2022-11-06T22:56:33.358Z,7.10
2022-11-06T22:59:05.263Z,7.03
2022-11-06T23:01:37.350Z,5.23
2022-11-06T23:04:14.852Z,4.37
2022-11-06T23:06:44.563Z,4.63
2022-11-06T23:09:13.012Z,3.73
2022-11-06T23:11:41.333Z,3.50
2022-11-06T23:14:10.976Z,3.60
2022-11-06T23:16:56.562Z,3.90
2022-11-06T23:19:25.514Z,4.60
2022-11-06T23:22:15.383Z,3.80
2022-11-06T23:24:44.023Z,3.37
2022-11-06T23:27:12.970Z,2.60
2022-11-06T23:29:42.542Z,3.10
2022-11-06T23:32:10.913Z,3.57
2022-11-06T23:34:41.422Z,3.10
2022-11-06T23:37:10.072Z,3.53
2022-11-06T23:39:38.519Z,3.10
2022-11-06T23:42:06.831Z,3.13
2022-11-06T23:44:52.826Z,3.10
2022-11-06T23:47:22.562Z,2.93
2022-11-06T23:49:50.940Z,2.80
2022-11-06T23:52:19.381Z,3.07
2022-11-06T23:54:47.890Z,3.10
2022-11-06T23:57:16.494Z,2.73
2022-11-06T23:59:44.853Z,3.10
